sensor_id;sensor_type;location;lat;lon;timestamp;P1;durP1;ratioP1;P2;durP2;ratioP2
2868;SDS011;1442;47.448;8.582;2023-06-22T00:01:06;16.67;;;7.07;;
2868;SDS011;1442;47.448;8.582;2023-06-22T00:03:33;19.70;;;7.35;;
2868;SDS011;1442;47.448;8.582;2023-06-22T00:06:00;14.40;;;7.13;;
2868;SDS011;1442;47.448;8.582;2023-06-22T00:08:27;17.35;;;7.30;;
2868;SDS011;1442;47.448;8.582;2023-06-22T00:10:56;13.95;;;7.55;;
2868;SDS011;1442;47.448;8.582;2023-06-22T00:13:23;15.00;;;7.05;;
2868;SDS011;1442;47.448;8.582;2023-06-22T00:15:50;15.63;;;7.15;;
2868;SDS011;1442;47.448;8.582;2023-06-22T00:18:17;13.25;;;6.82;;
2868;SDS011;1442;47.448;8.582;2023-06-22T00:20:45;14.73;;;7.50;;
2868;SDS011;1442;47.448;8.582;2023-06-22T00:23:12;15.75;;;7.70;;
2868;SDS011;1442;47.448;8.582;2023-06-22T00:25:41;17.33;;;7.53;;
2868;SDS011;1442;47.448;8.582;2023-06-22T00:28:09;22.30;;;6.88;;
2868;SDS011;1442;47.448;8.582;2023-06-22T00:30:36;15.90;;;7.10;;
2868;SDS011;1442;47.448;8.582;2023-06-22T00:33:03;15.52;;;8.05;;
2868;SDS011;1442;47.448;8.582;2023-06-22T00:35:32;18.25;;;7.25;;
2868;SDS011;1442;47.448;8.582;2023-06-22T00:38:00;15.93;;;7.90;;
2868;SDS011;1442;47.448;8.582;2023-06-22T00:40:29;12.85;;;7.18;;
2868;SDS011;1442;47.448;8.582;2023-06-22T00:42:57;13.40;;;7.07;;
2868;SDS011;1442;47.448;8.582;2023-06-22T00:45:26;17.92;;;7.45;;
2868;SDS011;1442;47.448;8.582;2023-06-22T00:47:53;17.23;;;6.60;;
2868;SDS011;1442;47.448;8.582;2023-06-22T00:50:21;22.02;;;7.60;;
2868;SDS011;1442;47.448;8.582;2023-06-22T00:52:51;17.35;;;6.95;;
2868;SDS011;1442;47.448;8.582;2023-06-22T00:55:18;17.52;;;7.53;;
2868;SDS011;1442;47.448;8.582;2023-06-22T00:57:45;13.85;;;6.88;;
2868;SDS011;1442;47.448;8.582;2023-06-22T01:00:14;18.80;;;7.28;;
2868;SDS011;1442;47.448;8.582;2023-06-22T01:02:45;15.48;;;6.82;;
2868;SDS011;1442;47.448;8.582;2023-06-22T01:05:12;22.85;;;7.03;;
2868;SDS011;1442;47.448;8.582;2023-06-22T01:07:40;16.40;;;7.43;;
2868;SDS011;1442;47.448;8.582;2023-06-22T01:10:10;18.35;;;7.68;;
2868;SDS011;1442;47.448;8.582;2023-06-22T01:12:42;14.20;;;8.07;;
2868;SDS011;1442;47.448;8.582;2023-06-22T01:15:11;21.27;;;8.90;;
2868;SDS011;1442;47.448;8.582;2023-06-22T01:17:41;13.20;;;7.50;;
2868;SDS011;1442;47.448;8.582;2023-06-22T01:20:10;16.40;;;7.90;;
2868;SDS011;1442;47.448;8.582;2023-06-22T01:22:41;17.88;;;7.90;;
2868;SDS011;1442;47.448;8.582;2023-06-22T01:25:13;14.45;;;7.97;;
2868;SDS011;1442;47.448;8.582;2023-06-22T01:27:46;13.82;;;7.32;;
2868;SDS011;1442;47.448;8.582;2023-06-22T01:30:16;16.92;;;7.63;;
2868;SDS011;1442;47.448;8.582;2023-06-22T01:32:43;17.50;;;8.20;;
2868;SDS011;1442;47.448;8.582;2023-06-22T01:35:10;20.48;;;8.07;;
2868;SDS011;1442;47.448;8.582;2023-06-22T01:37:38;25.55;;;9.18;;
2868;SDS011;1442;47.448;8.582;2023-06-22T01:40:06;15.23;;;7.88;;
2868;SDS011;1442;47.448;8.582;2023-06-22T01:42:34;13.13;;;7.47;;
2868;SDS011;1442;47.448;8.582;2023-06-22T01:45:02;14.48;;;8.85;;
2868;SDS011;1442;47.448;8.582;2023-06-22T01:47:31;19.42;;;8.15;;
2868;SDS011;1442;47.448;8.582;2023-06-22T01:49:58;13.82;;;7.47;;
2868;SDS011;1442;47.448;8.582;2023-06-22T01:52:26;15.02;;;6.97;;
2868;SDS011;1442;47.448;8.582;2023-06-22T01:54:53;16.75;;;7.35;;
2868;SDS011;1442;47.448;8.582;2023-06-22T01:57:22;19.55;;;7.55;;
2868;SDS011;1442;47.448;8.582;2023-06-22T01:59:52;15.25;;;7.28;;
2868;SDS011;1442;47.448;8.582;2023-06-22T02:02:20;12.63;;;6.90;;
2868;SDS011;1442;47.448;8.582;2023-06-22T02:04:54;23.42;;;7.28;;
2868;SDS011;1442;47.448;8.582;2023-06-22T02:07:23;10.87;;;6.90;;
2868;SDS011;1442;47.448;8.582;2023-06-22T02:09:51;17.17;;;7.20;;
2868;SDS011;1442;47.448;8.582;2023-06-22T02:12:21;14.20;;;7.25;;
2868;SDS011;1442;47.448;8.582;2023-06-22T02:14:49;14.10;;;7.75;;
2868;SDS011;1442;47.448;8.582;2023-06-22T02:17:17;13.15;;;6.90;;
2868;SDS011;1442;47.448;8.582;2023-06-22T02:19:44;19.80;;;8.50;;
2868;SDS011;1442;47.448;8.582;2023-06-22T02:22:13;16.55;;;7.80;;
2868;SDS011;1442;47.448;8.582;2023-06-22T02:24:40;14.70;;;7.45;;
2868;SDS011;1442;47.448;8.582;2023-06-22T02:27:07;14.65;;;7.25;;
2868;SDS011;1442;47.448;8.582;2023-06-22T02:29:35;17.17;;;7.45;;
2868;SDS011;1442;47.448;8.582;2023-06-22T02:32:02;16.08;;;7.32;;
2868;SDS011;1442;47.448;8.582;2023-06-22T02:34:30;13.93;;;6.93;;
2868;SDS011;1442;47.448;8.582;2023-06-22T02:36:59;20.20;;;7.45;;
2868;SDS011;1442;47.448;8.582;2023-06-22T02:39:29;20.35;;;7.68;;
2868;SDS011;1442;47.448;8.582;2023-06-22T02:41:56;11.90;;;7.15;;
2868;SDS011;1442;47.448;8.582;2023-06-22T02:44:23;20.67;;;9.38;;
2868;SDS011;1442;47.448;8.582;2023-06-22T02:46:50;16.25;;;7.82;;
2868;SDS011;1442;47.448;8.582;2023-06-22T02:49:19;13.60;;;7.07;;
2868;SDS011;1442;47.448;8.582;2023-06-22T02:51:46;17.42;;;7.78;;
2868;SDS011;1442;47.448;8.582;2023-06-22T02:54:14;14.18;;;6.45;;
2868;SDS011;1442;47.448;8.582;2023-06-22T02:56:42;15.20;;;7.15;;
2868;SDS011;1442;47.448;8.582;2023-06-22T02:59:09;18.70;;;6.78;;
2868;SDS011;1442;47.448;8.582;2023-06-22T03:01:37;16.05;;;8.35;;
2868;SDS011;1442;47.448;8.582;2023-06-22T03:04:06;11.70;;;7.40;;
2868;SDS011;1442;47.448;8.582;2023-06-22T03:06:33;19.10;;;8.80;;
2868;SDS011;1442;47.448;8.582;2023-06-22T03:09:01;12.05;;;7.63;;
2868;SDS011;1442;47.448;8.582;2023-06-22T03:11:29;18.77;;;8.43;;
2868;SDS011;1442;47.448;8.582;2023-06-22T03:13:58;13.48;;;7.72;;
2868;SDS011;1442;47.448;8.582;2023-06-22T03:16:25;21.42;;;9.63;;
2868;SDS011;1442;47.448;8.582;2023-06-22T03:18:53;16.95;;;9.15;;
2868;SDS011;1442;47.448;8.582;2023-06-22T03:21:21;17.17;;;8.85;;
2868;SDS011;1442;47.448;8.582;2023-06-22T03:23:48;19.52;;;9.20;;
2868;SDS011;1442;47.448;8.582;2023-06-22T03:26:16;13.88;;;9.05;;
2868;SDS011;1442;47.448;8.582;2023-06-22T03:28:43;18.92;;;8.40;;
2868;SDS011;1442;47.448;8.582;2023-06-22T03:31:11;16.95;;;8.10;;
2868;SDS011;1442;47.448;8.582;2023-06-22T03:33:38;12.68;;;7.95;;
2868;SDS011;1442;47.448;8.582;2023-06-22T03:36:06;16.30;;;7.95;;
2868;SDS011;1442;47.448;8.582;2023-06-22T03:38:33;12.32;;;7.45;;
2868;SDS011;1442;47.448;8.582;2023-06-22T03:41:00;16.85;;;7.45;;
2868;SDS011;1442;47.448;8.582;2023-06-22T03:43:27;17.52;;;8.80;;
2868;SDS011;1442;47.448;8.582;2023-06-22T03:45:54;17.70;;;7.30;;
2868;SDS011;1442;47.448;8.582;2023-06-22T03:48:22;15.23;;;7.63;;
2868;SDS011;1442;47.448;8.582;2023-06-22T03:50:50;11.82;;;7.57;;
2868;SDS011;1442;47.448;8.582;2023-06-22T03:53:17;14.02;;;7.10;;
2868;SDS011;1442;47.448;8.582;2023-06-22T03:55:47;16.80;;;7.85;;
2868;SDS011;1442;47.448;8.582;2023-06-22T03:58:15;16.00;;;8.60;;
2868;SDS011;1442;47.448;8.582;2023-06-22T04:00:43;17.25;;;8.18;;
2868;SDS011;1442;47.448;8.582;2023-06-22T04:03:11;14.05;;;7.68;;
2868;SDS011;1442;47.448;8.582;2023-06-22T04:05:39;15.50;;;8.02;;
2868;SDS011;1442;47.448;8.582;2023-06-22T04:08:06;19.23;;;9.20;;
2868;SDS011;1442;47.448;8.582;2023-06-22T04:10:34;17.35;;;8.75;;
2868;SDS011;1442;47.448;8.582;2023-06-22T04:13:01;16.38;;;8.88;;
2868;SDS011;1442;47.448;8.582;2023-06-22T04:15:28;15.82;;;8.27;;
2868;SDS011;1442;47.448;8.582;2023-06-22T04:17:55;17.08;;;8.85;;
2868;SDS011;1442;47.448;8.582;2023-06-22T04:20:23;13.65;;;8.05;;
2868;SDS011;1442;47.448;8.582;2023-06-22T04:22:52;18.15;;;8.10;;
2868;SDS011;1442;47.448;8.582;2023-06-22T04:25:20;10.35;;;7.03;;
2868;SDS011;1442;47.448;8.582;2023-06-22T04:27:47;13.25;;;7.65;;
2868;SDS011;1442;47.448;8.582;2023-06-22T04:30:16;17.63;;;8.25;;
2868;SDS011;1442;47.448;8.582;2023-06-22T04:32:43;17.58;;;8.23;;
2868;SDS011;1442;47.448;8.582;2023-06-22T04:35:10;16.30;;;9.05;;
2868;SDS011;1442;47.448;8.582;2023-06-22T04:37:38;12.48;;;7.75;;
2868;SDS011;1442;47.448;8.582;2023-06-22T04:40:07;15.88;;;7.72;;
2868;SDS011;1442;47.448;8.582;2023-06-22T04:42:35;17.17;;;9.85;;
2868;SDS011;1442;47.448;8.582;2023-06-22T04:45:02;17.45;;;8.77;;
2868;SDS011;1442;47.448;8.582;2023-06-22T04:47:29;19.33;;;8.80;;
2868;SDS011;1442;47.448;8.582;2023-06-22T04:49:57;18.88;;;8.82;;
2868;SDS011;1442;47.448;8.582;2023-06-22T04:52:24;17.92;;;8.30;;
2868;SDS011;1442;47.448;8.582;2023-06-22T04:54:51;28.92;;;9.90;;
2868;SDS011;1442;47.448;8.582;2023-06-22T04:57:22;19.42;;;9.15;;
2868;SDS011;1442;47.448;8.582;2023-06-22T04:59:57;22.48;;;9.05;;
2868;SDS011;1442;47.448;8.582;2023-06-22T05:02:32;19.42;;;9.30;;
2868;SDS011;1442;47.448;8.582;2023-06-22T05:04:59;19.05;;;8.57;;
2868;SDS011;1442;47.448;8.582;2023-06-22T05:07:32;19.25;;;8.60;;
2868;SDS011;1442;47.448;8.582;2023-06-22T05:09:59;21.48;;;9.50;;
2868;SDS011;1442;47.448;8.582;2023-06-22T05:12:29;14.38;;;8.00;;
2868;SDS011;1442;47.448;8.582;2023-06-22T05:14:56;14.85;;;8.10;;
2868;SDS011;1442;47.448;8.582;2023-06-22T05:17:23;17.02;;;8.80;;
2868;SDS011;1442;47.448;8.582;2023-06-22T05:19:51;20.10;;;8.38;;
2868;SDS011;1442;47.448;8.582;2023-06-22T05:22:18;25.10;;;8.48;;
2868;SDS011;1442;47.448;8.582;2023-06-22T05:24:45;20.55;;;8.75;;
2868;SDS011;1442;47.448;8.582;2023-06-22T05:27:13;17.20;;;8.10;;
2868;SDS011;1442;47.448;8.582;2023-06-22T05:29:41;21.23;;;8.93;;
2868;SDS011;1442;47.448;8.582;2023-06-22T05:32:08;17.80;;;7.97;;
2868;SDS011;1442;47.448;8.582;2023-06-22T05:34:35;25.40;;;7.63;;
2868;SDS011;1442;47.448;8.582;2023-06-22T05:37:03;16.02;;;7.93;;
2868;SDS011;1442;47.448;8.582;2023-06-22T05:39:30;22.05;;;7.38;;
2868;SDS011;1442;47.448;8.582;2023-06-22T05:41:57;14.45;;;6.55;;
2868;SDS011;1442;47.448;8.582;2023-06-22T05:44:24;16.92;;;6.63;;
2868;SDS011;1442;47.448;8.582;2023-06-22T05:46:53;14.95;;;7.90;;
2868;SDS011;1442;47.448;8.582;2023-06-22T05:49:20;17.10;;;7.28;;
2868;SDS011;1442;47.448;8.582;2023-06-22T05:51:48;20.02;;;6.75;;
2868;SDS011;1442;47.448;8.582;2023-06-22T05:54:15;18.73;;;7.68;;
2868;SDS011;1442;47.448;8.582;2023-06-22T05:56:43;16.23;;;7.38;;
2868;SDS011;1442;47.448;8.582;2023-06-22T05:59:10;14.60;;;7.32;;
2868;SDS011;1442;47.448;8.582;2023-06-22T06:01:37;16.48;;;8.32;;
2868;SDS011;1442;47.448;8.582;2023-06-22T06:04:06;18.67;;;8.43;;
2868;SDS011;1442;47.448;8.582;2023-06-22T06:06:34;16.10;;;8.18;;
2868;SDS011;1442;47.448;8.582;2023-06-22T06:09:02;13.43;;;7.95;;
2868;SDS011;1442;47.448;8.582;2023-06-22T06:11:29;20.67;;;7.88;;
2868;SDS011;1442;47.448;8.582;2023-06-22T06:13:57;14.05;;;7.43;;
2868;SDS011;1442;47.448;8.582;2023-06-22T06:16:24;19.05;;;8.23;;
2868;SDS011;1442;47.448;8.582;2023-06-22T06:18:51;20.05;;;8.55;;
2868;SDS011;1442;47.448;8.582;2023-06-22T06:21:21;16.42;;;8.90;;
2868;SDS011;1442;47.448;8.582;2023-06-22T06:23:48;18.20;;;7.90;;
2868;SDS011;1442;47.448;8.582;2023-06-22T06:26:15;22.45;;;8.68;;
2868;SDS011;1442;47.448;8.582;2023-06-22T06:28:42;16.23;;;8.25;;
2868;SDS011;1442;47.448;8.582;2023-06-22T06:31:09;19.38;;;9.23;;
2868;SDS011;1442;47.448;8.582;2023-06-22T06:33:37;20.92;;;8.50;;
2868;SDS011;1442;47.448;8.582;2023-06-22T06:36:04;19.52;;;8.23;;
2868;SDS011;1442;47.448;8.582;2023-06-22T06:38:34;20.27;;;8.77;;
2868;SDS011;1442;47.448;8.582;2023-06-22T06:41:02;17.20;;;7.95;;
2868;SDS011;1442;47.448;8.582;2023-06-22T06:43:29;21.00;;;9.25;;
2868;SDS011;1442;47.448;8.582;2023-06-22T06:45:56;14.43;;;8.25;;
2868;SDS011;1442;47.448;8.582;2023-06-22T06:48:23;16.42;;;8.85;;
2868;SDS011;1442;47.448;8.582;2023-06-22T06:50:50;18.65;;;8.35;;
2868;SDS011;1442;47.448;8.582;2023-06-22T06:53:17;17.58;;;8.57;;
2868;SDS011;1442;47.448;8.582;2023-06-22T06:55:46;14.95;;;8.32;;
2868;SDS011;1442;47.448;8.582;2023-06-22T06:58:13;18.65;;;8.45;;
2868;SDS011;1442;47.448;8.582;2023-06-22T07:00:41;23.20;;;8.77;;
2868;SDS011;1442;47.448;8.582;2023-06-22T07:03:08;15.57;;;8.23;;
2868;SDS011;1442;47.448;8.582;2023-06-22T07:05:35;20.05;;;9.13;;
2868;SDS011;1442;47.448;8.582;2023-06-22T07:08:03;17.20;;;8.52;;
2868;SDS011;1442;47.448;8.582;2023-06-22T07:10:30;16.02;;;8.50;;
2868;SDS011;1442;47.448;8.582;2023-06-22T07:12:58;19.60;;;8.98;;
2868;SDS011;1442;47.448;8.582;2023-06-22T07:15:26;18.25;;;7.50;;
2868;SDS011;1442;47.448;8.582;2023-06-22T07:17:54;15.07;;;7.03;;
2868;SDS011;1442;47.448;8.582;2023-06-22T07:20:21;17.83;;;8.05;;
2868;SDS011;1442;47.448;8.582;2023-06-22T07:22:48;15.40;;;8.35;;
2868;SDS011;1442;47.448;8.582;2023-06-22T07:25:15;20.40;;;7.95;;
2868;SDS011;1442;47.448;8.582;2023-06-22T07:27:46;23.10;;;9.05;;
2868;SDS011;1442;47.448;8.582;2023-06-22T07:30:14;17.85;;;9.30;;
2868;SDS011;1442;47.448;8.582;2023-06-22T07:32:41;16.88;;;9.52;;
2868;SDS011;1442;47.448;8.582;2023-06-22T07:35:09;20.80;;;8.95;;
2868;SDS011;1442;47.448;8.582;2023-06-22T07:37:36;21.42;;;8.68;;
2868;SDS011;1442;47.448;8.582;2023-06-22T07:40:03;24.65;;;8.48;;
2868;SDS011;1442;47.448;8.582;2023-06-22T07:42:31;14.48;;;8.65;;
2868;SDS011;1442;47.448;8.582;2023-06-22T07:44:59;27.25;;;8.60;;
2868;SDS011;1442;47.448;8.582;2023-06-22T07:47:28;18.25;;;8.57;;
2868;SDS011;1442;47.448;8.582;2023-06-22T07:49:55;11.13;;;8.13;;
2868;SDS011;1442;47.448;8.582;2023-06-22T07:52:23;18.35;;;8.93;;
2868;SDS011;1442;47.448;8.582;2023-06-22T07:54:51;17.10;;;8.27;;
2868;SDS011;1442;47.448;8.582;2023-06-22T07:57:18;26.80;;;8.85;;
2868;SDS011;1442;47.448;8.582;2023-06-22T07:59:45;15.55;;;9.27;;
2868;SDS011;1442;47.448;8.582;2023-06-22T08:02:12;20.05;;;9.27;;
2868;SDS011;1442;47.448;8.582;2023-06-22T08:04:41;24.77;;;8.27;;
2868;SDS011;1442;47.448;8.582;2023-06-22T08:07:08;14.43;;;7.10;;
2868;SDS011;1442;47.448;8.582;2023-06-22T08:09:35;18.48;;;8.48;;
2868;SDS011;1442;47.448;8.582;2023-06-22T08:12:03;15.23;;;7.72;;
2868;SDS011;1442;47.448;8.582;2023-06-22T08:14:30;17.08;;;8.75;;
2868;SDS011;1442;47.448;8.582;2023-06-22T08:16:57;16.52;;;8.10;;
2868;SDS011;1442;47.448;8.582;2023-06-22T08:19:24;18.23;;;7.18;;
2868;SDS011;1442;47.448;8.582;2023-06-22T08:21:53;15.68;;;7.57;;
2868;SDS011;1442;47.448;8.582;2023-06-22T08:24:20;17.92;;;7.72;;
2868;SDS011;1442;47.448;8.582;2023-06-22T08:26:47;17.25;;;8.65;;
2868;SDS011;1442;47.448;8.582;2023-06-22T08:29:14;16.95;;;8.30;;
2868;SDS011;1442;47.448;8.582;2023-06-22T08:31:41;16.50;;;8.65;;
2868;SDS011;1442;47.448;8.582;2023-06-22T08:34:08;17.38;;;7.82;;
2868;SDS011;1442;47.448;8.582;2023-06-22T08:36:35;19.83;;;7.63;;
2868;SDS011;1442;47.448;8.582;2023-06-22T08:39:07;18.13;;;8.70;;
2868;SDS011;1442;47.448;8.582;2023-06-22T08:41:35;12.02;;;7.38;;
2868;SDS011;1442;47.448;8.582;2023-06-22T08:44:02;18.65;;;8.82;;
2868;SDS011;1442;47.448;8.582;2023-06-22T08:46:29;15.65;;;8.07;;
2868;SDS011;1442;47.448;8.582;2023-06-22T08:48:58;14.07;;;8.18;;
2868;SDS011;1442;47.448;8.582;2023-06-22T08:51:26;12.77;;;7.93;;
2868;SDS011;1442;47.448;8.582;2023-06-22T08:53:54;17.70;;;7.55;;
2868;SDS011;1442;47.448;8.582;2023-06-22T08:56:22;15.85;;;8.20;;
2868;SDS011;1442;47.448;8.582;2023-06-22T08:58:50;20.73;;;8.75;;
2868;SDS011;1442;47.448;8.582;2023-06-22T09:01:17;19.23;;;7.68;;
2868;SDS011;1442;47.448;8.582;2023-06-22T09:03:44;12.82;;;8.40;;
2868;SDS011;1442;47.448;8.582;2023-06-22T09:06:19;16.10;;;7.93;;
2868;SDS011;1442;47.448;8.582;2023-06-22T09:08:46;14.85;;;8.65;;
2868;SDS011;1442;47.448;8.582;2023-06-22T09:11:14;21.48;;;8.43;;
2868;SDS011;1442;47.448;8.582;2023-06-22T09:13:42;16.67;;;7.85;;
2868;SDS011;1442;47.448;8.582;2023-06-22T09:16:11;18.75;;;8.30;;
2868;SDS011;1442;47.448;8.582;2023-06-22T09:18:38;11.38;;;6.70;;
2868;SDS011;1442;47.448;8.582;2023-06-22T09:21:06;13.10;;;6.68;;
2868;SDS011;1442;47.448;8.582;2023-06-22T09:23:33;16.95;;;7.63;;
2868;SDS011;1442;47.448;8.582;2023-06-22T09:26:00;13.98;;;7.10;;
2868;SDS011;1442;47.448;8.582;2023-06-22T09:28:27;13.30;;;7.20;;
2868;SDS011;1442;47.448;8.582;2023-06-22T09:30:56;20.08;;;7.10;;
2868;SDS011;1442;47.448;8.582;2023-06-22T09:33:24;15.73;;;7.28;;
2868;SDS011;1442;47.448;8.582;2023-06-22T09:35:51;17.20;;;7.10;;
2868;SDS011;1442;47.448;8.582;2023-06-22T09:38:18;12.02;;;6.45;;
2868;SDS011;1442;47.448;8.582;2023-06-22T09:40:46;18.77;;;7.35;;
2868;SDS011;1442;47.448;8.582;2023-06-22T09:43:13;15.52;;;7.75;;
2868;SDS011;1442;47.448;8.582;2023-06-22T09:45:40;16.58;;;6.30;;
2868;SDS011;1442;47.448;8.582;2023-06-22T09:48:08;13.98;;;6.03;;
2868;SDS011;1442;47.448;8.582;2023-06-22T09:50:35;12.68;;;6.22;;
2868;SDS011;1442;47.448;8.582;2023-06-22T09:53:03;18.08;;;7.03;;
2868;SDS011;1442;47.448;8.582;2023-06-22T09:55:30;12.77;;;6.10;;
2868;SDS011;1442;47.448;8.582;2023-06-22T09:57:57;17.30;;;6.85;;
2868;SDS011;1442;47.448;8.582;2023-06-22T10:00:24;21.70;;;6.45;;
2868;SDS011;1442;47.448;8.582;2023-06-22T10:02:52;16.02;;;5.93;;
2868;SDS011;1442;47.448;8.582;2023-06-22T10:05:22;15.10;;;6.15;;
2868;SDS011;1442;47.448;8.582;2023-06-22T10:07:49;16.88;;;6.63;;
2868;SDS011;1442;47.448;8.582;2023-06-22T10:10:17;18.58;;;6.68;;
2868;SDS011;1442;47.448;8.582;2023-06-22T10:12:45;25.60;;;6.90;;
2868;SDS011;1442;47.448;8.582;2023-06-22T10:15:12;18.27;;;6.63;;
2868;SDS011;1442;47.448;8.582;2023-06-22T10:17:40;11.60;;;5.78;;
2868;SDS011;1442;47.448;8.582;2023-06-22T10:20:07;13.77;;;5.65;;
2868;SDS011;1442;47.448;8.582;2023-06-22T10:22:40;10.88;;;5.88;;
2868;SDS011;1442;47.448;8.582;2023-06-22T10:25:07;16.38;;;7.40;;
2868;SDS011;1442;47.448;8.582;2023-06-22T10:27:35;16.45;;;6.82;;
2868;SDS011;1442;47.448;8.582;2023-06-22T10:30:05;15.43;;;5.78;;
2868;SDS011;1442;47.448;8.582;2023-06-22T10:32:32;14.60;;;6.05;;
2868;SDS011;1442;47.448;8.582;2023-06-22T10:34:59;13.93;;;6.00;;
2868;SDS011;1442;47.448;8.582;2023-06-22T10:37:26;11.50;;;5.60;;
2868;SDS011;1442;47.448;8.582;2023-06-22T10:39:55;15.30;;;6.13;;
2868;SDS011;1442;47.448;8.582;2023-06-22T10:42:22;14.38;;;6.00;;
2868;SDS011;1442;47.448;8.582;2023-06-22T10:44:49;17.40;;;6.35;;
2868;SDS011;1442;47.448;8.582;2023-06-22T10:47:16;17.00;;;6.45;;
2868;SDS011;1442;47.448;8.582;2023-06-22T10:49:43;21.73;;;7.25;;
2868;SDS011;1442;47.448;8.582;2023-06-22T10:52:10;16.20;;;6.40;;
2868;SDS011;1442;47.448;8.582;2023-06-22T10:54:38;17.77;;;6.45;;
2868;SDS011;1442;47.448;8.582;2023-06-22T10:57:06;19.58;;;6.57;;
2868;SDS011;1442;47.448;8.582;2023-06-22T10:59:33;19.92;;;6.18;;
2868;SDS011;1442;47.448;8.582;2023-06-22T11:02:01;15.02;;;6.15;;
2868;SDS011;1442;47.448;8.582;2023-06-22T11:04:28;19.80;;;6.30;;
2868;SDS011;1442;47.448;8.582;2023-06-22T11:06:55;16.75;;;6.15;;
2868;SDS011;1442;47.448;8.582;2023-06-22T11:09:22;17.80;;;5.82;;
2868;SDS011;1442;47.448;8.582;2023-06-22T11:11:50;14.40;;;7.25;;
2868;SDS011;1442;47.448;8.582;2023-06-22T11:14:19;19.73;;;6.03;;
2868;SDS011;1442;47.448;8.582;2023-06-22T11:16:47;17.50;;;6.70;;
2868;SDS011;1442;47.448;8.582;2023-06-22T11:19:14;30.35;;;7.18;;
2868;SDS011;1442;47.448;8.582;2023-06-22T11:21:42;17.52;;;6.22;;
2868;SDS011;1442;47.448;8.582;2023-06-22T11:24:09;25.80;;;6.38;;
2868;SDS011;1442;47.448;8.582;2023-06-22T11:26:36;14.90;;;6.32;;
2868;SDS011;1442;47.448;8.582;2023-06-22T11:29:03;13.15;;;6.38;;
2868;SDS011;1442;47.448;8.582;2023-06-22T11:31:32;18.08;;;6.43;;
2868;SDS011;1442;47.448;8.582;2023-06-22T11:33:59;17.05;;;6.15;;
2868;SDS011;1442;47.448;8.582;2023-06-22T11:36:26;11.95;;;5.78;;
2868;SDS011;1442;47.448;8.582;2023-06-22T11:38:54;18.30;;;6.25;;
2868;SDS011;1442;47.448;8.582;2023-06-22T11:41:21;17.38;;;6.05;;
2868;SDS011;1442;47.448;8.582;2023-06-22T11:43:48;23.92;;;6.43;;
2868;SDS011;1442;47.448;8.582;2023-06-22T11:46:15;16.30;;;6.30;;
2868;SDS011;1442;47.448;8.582;2023-06-22T11:48:44;13.27;;;6.10;;
2868;SDS011;1442;47.448;8.582;2023-06-22T11:51:11;15.40;;;5.90;;
2868;SDS011;1442;47.448;8.582;2023-06-22T11:53:38;17.63;;;5.65;;
2868;SDS011;1442;47.448;8.582;2023-06-22T11:56:05;16.60;;;6.30;;
2868;SDS011;1442;47.448;8.582;2023-06-22T11:58:33;17.95;;;6.80;;
2868;SDS011;1442;47.448;8.582;2023-06-22T12:01:00;13.93;;;6.80;;
2868;SDS011;1442;47.448;8.582;2023-06-22T12:03:27;16.98;;;7.05;;
2868;SDS011;1442;47.448;8.582;2023-06-22T12:05:56;17.67;;;6.32;;
2868;SDS011;1442;47.448;8.582;2023-06-22T12:08:23;21.83;;;6.90;;
2868;SDS011;1442;47.448;8.582;2023-06-22T12:10:50;17.25;;;7.15;;
2868;SDS011;1442;47.448;8.582;2023-06-22T12:13:18;17.77;;;6.57;;
2868;SDS011;1442;47.448;8.582;2023-06-22T12:15:46;17.08;;;7.15;;
2868;SDS011;1442;47.448;8.582;2023-06-22T12:18:13;18.80;;;7.20;;
2868;SDS011;1442;47.448;8.582;2023-06-22T12:20:40;15.80;;;6.65;;
2868;SDS011;1442;47.448;8.582;2023-06-22T12:23:08;17.13;;;6.68;;
2868;SDS011;1442;47.448;8.582;2023-06-22T12:25:36;16.08;;;6.32;;
2868;SDS011;1442;47.448;8.582;2023-06-22T12:28:03;16.75;;;6.22;;
2868;SDS011;1442;47.448;8.582;2023-06-22T12:30:30;18.60;;;7.22;;
2868;SDS011;1442;47.448;8.582;2023-06-22T12:32:57;16.85;;;6.30;;
2868;SDS011;1442;47.448;8.582;2023-06-22T12:35:24;16.92;;;6.20;;
2868;SDS011;1442;47.448;8.582;2023-06-22T12:37:51;19.65;;;6.72;;
2868;SDS011;1442;47.448;8.582;2023-06-22T12:40:20;16.35;;;6.57;;
2868;SDS011;1442;47.448;8.582;2023-06-22T12:42:47;17.35;;;6.47;;
2868;SDS011;1442;47.448;8.582;2023-06-22T12:45:14;12.18;;;6.20;;
2868;SDS011;1442;47.448;8.582;2023-06-22T12:47:41;13.70;;;6.35;;
2868;SDS011;1442;47.448;8.582;2023-06-22T12:50:09;18.42;;;6.40;;
2868;SDS011;1442;47.448;8.582;2023-06-22T12:52:36;14.05;;;6.72;;
2868;SDS011;1442;47.448;8.582;2023-06-22T12:55:06;24.25;;;7.22;;
2868;SDS011;1442;47.448;8.582;2023-06-22T12:57:34;17.38;;;7.40;;
2868;SDS011;1442;47.448;8.582;2023-06-22T13:00:02;15.75;;;5.80;;
2868;SDS011;1442;47.448;8.582;2023-06-22T13:02:30;16.15;;;6.03;;
2868;SDS011;1442;47.448;8.582;2023-06-22T13:04:57;10.73;;;6.00;;
2868;SDS011;1442;47.448;8.582;2023-06-22T13:07:24;17.25;;;6.13;;
2868;SDS011;1442;47.448;8.582;2023-06-22T13:09:51;14.40;;;6.13;;
2868;SDS011;1442;47.448;8.582;2023-06-22T13:12:19;15.30;;;6.30;;
2868;SDS011;1442;47.448;8.582;2023-06-22T13:14:47;16.63;;;7.38;;
2868;SDS011;1442;47.448;8.582;2023-06-22T13:17:15;18.75;;;6.38;;
2868;SDS011;1442;47.448;8.582;2023-06-22T13:19:42;19.02;;;6.45;;
2868;SDS011;1442;47.448;8.582;2023-06-22T13:22:25;13.70;;;7.20;;
2868;SDS011;1442;47.448;8.582;2023-06-22T13:24:53;24.27;;;6.45;;
2868;SDS011;1442;47.448;8.582;2023-06-22T13:27:20;19.17;;;5.88;;
2868;SDS011;1442;47.448;8.582;2023-06-22T13:29:48;14.88;;;5.93;;
2868;SDS011;1442;47.448;8.582;2023-06-22T13:32:15;17.60;;;6.00;;
2868;SDS011;1442;47.448;8.582;2023-06-22T13:34:43;21.13;;;5.65;;
2868;SDS011;1442;47.448;8.582;2023-06-22T13:37:10;23.73;;;5.70;;
2868;SDS011;1442;47.448;8.582;2023-06-22T13:39:37;17.65;;;6.80;;
2868;SDS011;1442;47.448;8.582;2023-06-22T13:42:04;20.70;;;5.25;;
2868;SDS011;1442;47.448;8.582;2023-06-22T13:44:32;14.55;;;5.13;;
2868;SDS011;1442;47.448;8.582;2023-06-22T13:47:00;18.05;;;4.47;;
2868;SDS011;1442;47.448;8.582;2023-06-22T13:49:28;12.00;;;4.45;;
2868;SDS011;1442;47.448;8.582;2023-06-22T13:51:55;15.88;;;4.55;;
2868;SDS011;1442;47.448;8.582;2023-06-22T13:54:22;13.63;;;4.22;;
2868;SDS011;1442;47.448;8.582;2023-06-22T13:56:49;9.27;;;4.30;;
2868;SDS011;1442;47.448;8.582;2023-06-22T13:59:16;13.75;;;4.95;;
2868;SDS011;1442;47.448;8.582;2023-06-22T14:01:43;16.45;;;4.85;;
2868;SDS011;1442;47.448;8.582;2023-06-22T14:04:12;15.40;;;4.90;;
2868;SDS011;1442;47.448;8.582;2023-06-22T14:06:39;15.02;;;4.70;;
2868;SDS011;1442;47.448;8.582;2023-06-22T14:09:06;14.82;;;4.47;;
2868;SDS011;1442;47.448;8.582;2023-06-22T14:11:33;16.88;;;5.03;;
2868;SDS011;1442;47.448;8.582;2023-06-22T14:14:00;14.10;;;4.53;;
2868;SDS011;1442;47.448;8.582;2023-06-22T14:16:27;15.10;;;4.82;;
2868;SDS011;1442;47.448;8.582;2023-06-22T14:18:54;17.77;;;5.07;;
2868;SDS011;1442;47.448;8.582;2023-06-22T14:21:23;15.23;;;5.05;;
2868;SDS011;1442;47.448;8.582;2023-06-22T14:23:50;12.00;;;4.40;;
2868;SDS011;1442;47.448;8.582;2023-06-22T14:26:17;13.25;;;4.40;;
2868;SDS011;1442;47.448;8.582;2023-06-22T14:28:44;14.93;;;4.82;;
2868;SDS011;1442;47.448;8.582;2023-06-22T14:31:13;15.32;;;5.10;;
2868;SDS011;1442;47.448;8.582;2023-06-22T14:33:40;23.23;;;5.80;;
2868;SDS011;1442;47.448;8.582;2023-06-22T14:36:08;20.52;;;5.68;;
2868;SDS011;1442;47.448;8.582;2023-06-22T14:38:36;19.55;;;6.65;;
2868;SDS011;1442;47.448;8.582;2023-06-22T14:41:03;16.92;;;5.88;;
2868;SDS011;1442;47.448;8.582;2023-06-22T14:43:30;16.40;;;5.18;;
2868;SDS011;1442;47.448;8.582;2023-06-22T14:45:58;16.20;;;5.43;;
2868;SDS011;1442;47.448;8.582;2023-06-22T14:48:25;16.48;;;6.35;;
2868;SDS011;1442;47.448;8.582;2023-06-22T14:50:53;15.20;;;5.43;;
2868;SDS011;1442;47.448;8.582;2023-06-22T14:53:20;19.23;;;7.13;;
2868;SDS011;1442;47.448;8.582;2023-06-22T14:55:49;12.50;;;5.88;;
2868;SDS011;1442;47.448;8.582;2023-06-22T14:58:16;21.10;;;6.25;;
2868;SDS011;1442;47.448;8.582;2023-06-22T15:00:44;14.13;;;6.60;;
2868;SDS011;1442;47.448;8.582;2023-06-22T15:03:11;17.90;;;5.85;;